メインページ
METAR-TAF:

METAR-TAF

空港 :

ヘルシンキ・ヴァンター国際空港

ヘルシンキ, フィンランド

緯度: 60-19N, 経度: 024-58E, 海抜: 51m

現時点の気象観測

当レポートは19分前の06:20(UTC)に作成
南東の風 9kt
気温 1°C
湿度 100%
気圧 995 hPa
視程: 6000m
高度500ftの千切れ雲あり
小雨, 雪

METAR: EFHK 150620Z 14009KT 6000 -RASN BKN005 01/01 Q0995 NOSIG

時間: 08:39 (06:39 UTC)

予報

当レポートは1時間13分前の05:26(UTC)に作成
予報は15日の 06時(UTC)から 16日の 06時(UTC)まで有効
南東の風 10kt
視程: 5000m
高度600ftの千切れ雲あり
小雨, 雪
15日の 06時(UTC)から 15日の 23時(UTC)まで一時的に
視程: 4000m
高度400ftの千切れ雲あり
霧雨
確率 30% :
15日の 23時(UTC)から 16日の 04時(UTC)まで一時的に
視程: 8000m
高度1000ftの千切れ雲あり
小雨

TAF: EFHK 150526Z 1506/1606 14010KT 5000 -RASN BKN006 TEMPO 1506/1523 4000 DZ BKN004 PROB30 TEMPO 1523/1604 8000 -RA BKN010

4,000以上の空港の気象観測と天気予報(METAR報とTAF報)

利用可能な観測所は地図上に黄色い丸と赤い丸で示す。

丸の上にカーソルを重ねると観測所名を参照できる。

次にクリックすると気象観測と天気予報を参照できる。

マップの切り替え:黒色「×」印の緑ボタンをクリックして拡大、「-」印の緑ボタンをクリックして縮小、緑色の三角印をクリックして隣りの地図に切り替え


METAR-TAF: